sensor_id;sensor_type;location;lat;lon;timestamp;P1;durP1;ratioP1;P2;durP2;ratioP2
79212;SDS011;68639;52.380;9.822;2023-05-07T00:01:31;28.40;;;21.30;;
79212;SDS011;68639;52.380;9.822;2023-05-07T00:03:56;28.43;;;21.53;;
79212;SDS011;68639;52.380;9.822;2023-05-07T00:06:22;29.17;;;22.17;;
79212;SDS011;68639;52.380;9.822;2023-05-07T00:08:47;26.80;;;20.77;;
79212;SDS011;68639;52.380;9.822;2023-05-07T00:11:13;29.77;;;22.07;;
79212;SDS011;68639;52.380;9.822;2023-05-07T00:13:38;30.07;;;22.37;;
79212;SDS011;68639;52.380;9.822;2023-05-07T00:16:03;29.47;;;21.97;;
79212;SDS011;68639;52.380;9.822;2023-05-07T00:18:29;32.30;;;22.23;;
79212;SDS011;68639;52.380;9.822;2023-05-07T00:20:54;30.37;;;22.63;;
79212;SDS011;68639;52.380;9.822;2023-05-07T00:23:19;31.97;;;22.17;;
79212;SDS011;68639;52.380;9.822;2023-05-07T00:25:45;29.17;;;22.07;;
79212;SDS011;68639;52.380;9.822;2023-05-07T00:28:10;30.90;;;23.40;;
79212;SDS011;68639;52.380;9.822;2023-05-07T00:30:35;30.57;;;21.53;;
79212;SDS011;68639;52.380;9.822;2023-05-07T00:33:01;30.33;;;22.03;;
79212;SDS011;68639;52.380;9.822;2023-05-07T00:35:26;34.53;;;21.20;;
79212;SDS011;68639;52.380;9.822;2023-05-07T00:37:51;32.27;;;23.23;;
79212;SDS011;68639;52.380;9.822;2023-05-07T00:40:16;36.43;;;22.93;;
79212;SDS011;68639;52.380;9.822;2023-05-07T00:42:41;36.73;;;23.93;;
79212;SDS011;68639;52.380;9.822;2023-05-07T00:45:12;32.53;;;24.37;;
79212;SDS011;68639;52.380;9.822;2023-05-07T00:47:38;35.47;;;24.10;;
79212;SDS011;68639;52.380;9.822;2023-05-07T00:50:04;32.60;;;23.57;;
79212;SDS011;68639;52.380;9.822;2023-05-07T00:52:30;35.17;;;23.63;;
79212;SDS011;68639;52.380;9.822;2023-05-07T00:54:55;35.67;;;25.27;;
79212;SDS011;68639;52.380;9.822;2023-05-07T00:57:21;35.63;;;25.30;;
79212;SDS011;68639;52.380;9.822;2023-05-07T00:59:46;38.03;;;25.47;;
79212;SDS011;68639;52.380;9.822;2023-05-07T01:02:12;38.60;;;24.60;;
79212;SDS011;68639;52.380;9.822;2023-05-07T01:04:37;38.07;;;25.20;;
79212;SDS011;68639;52.380;9.822;2023-05-07T01:07:02;38.00;;;25.27;;
79212;SDS011;68639;52.380;9.822;2023-05-07T01:09:28;36.27;;;24.63;;
79212;SDS011;68639;52.380;9.822;2023-05-07T01:11:54;35.83;;;25.27;;
79212;SDS011;68639;52.380;9.822;2023-05-07T01:14:20;40.23;;;26.20;;
79212;SDS011;68639;52.380;9.822;2023-05-07T01:16:46;38.70;;;26.03;;
79212;SDS011;68639;52.380;9.822;2023-05-07T01:19:11;37.90;;;24.07;;
79212;SDS011;68639;52.380;9.822;2023-05-07T01:21:38;40.53;;;26.97;;
79212;SDS011;68639;52.380;9.822;2023-05-07T01:24:06;36.70;;;26.37;;
79212;SDS011;68639;52.380;9.822;2023-05-07T01:26:32;37.33;;;26.63;;
79212;SDS011;68639;52.380;9.822;2023-05-07T01:28:57;36.73;;;27.40;;
79212;SDS011;68639;52.380;9.822;2023-05-07T01:31:23;37.20;;;26.50;;
79212;SDS011;68639;52.380;9.822;2023-05-07T01:33:49;39.47;;;25.93;;
79212;SDS011;68639;52.380;9.822;2023-05-07T01:36:15;37.10;;;27.23;;
79212;SDS011;68639;52.380;9.822;2023-05-07T01:38:42;38.67;;;27.57;;
79212;SDS011;68639;52.380;9.822;2023-05-07T01:41:08;43.17;;;28.33;;
79212;SDS011;68639;52.380;9.822;2023-05-07T01:43:33;43.50;;;27.30;;
79212;SDS011;68639;52.380;9.822;2023-05-07T01:45:58;44.53;;;26.80;;
79212;SDS011;68639;52.380;9.822;2023-05-07T01:48:24;36.47;;;26.27;;
79212;SDS011;68639;52.380;9.822;2023-05-07T01:50:50;37.77;;;25.40;;
79212;SDS011;68639;52.380;9.822;2023-05-07T01:53:16;34.23;;;23.63;;
79212;SDS011;68639;52.380;9.822;2023-05-07T01:55:41;35.93;;;20.87;;
79212;SDS011;68639;52.380;9.822;2023-05-07T01:58:07;36.53;;;22.23;;
79212;SDS011;68639;52.380;9.822;2023-05-07T02:00:32;33.23;;;21.50;;
79212;SDS011;68639;52.380;9.822;2023-05-07T02:02:57;36.53;;;22.30;;
79212;SDS011;68639;52.380;9.822;2023-05-07T02:05:22;31.17;;;20.40;;
79212;SDS011;68639;52.380;9.822;2023-05-07T02:07:48;30.13;;;20.07;;
79212;SDS011;68639;52.380;9.822;2023-05-07T02:10:13;29.47;;;19.50;;
79212;SDS011;68639;52.380;9.822;2023-05-07T02:12:38;26.53;;;19.40;;
79212;SDS011;68639;52.380;9.822;2023-05-07T02:15:03;26.27;;;18.47;;
79212;SDS011;68639;52.380;9.822;2023-05-07T02:17:29;22.97;;;16.83;;
79212;SDS011;68639;52.380;9.822;2023-05-07T02:19:56;22.93;;;15.60;;
79212;SDS011;68639;52.380;9.822;2023-05-07T02:22:22;22.87;;;15.97;;
79212;SDS011;68639;52.380;9.822;2023-05-07T02:24:47;20.43;;;14.73;;
79212;SDS011;68639;52.380;9.822;2023-05-07T02:27:12;20.30;;;14.77;;
79212;SDS011;68639;52.380;9.822;2023-05-07T02:29:37;22.40;;;15.17;;
79212;SDS011;68639;52.380;9.822;2023-05-07T02:32:03;20.77;;;14.33;;
79212;SDS011;68639;52.380;9.822;2023-05-07T02:34:28;22.47;;;13.70;;
79212;SDS011;68639;52.380;9.822;2023-05-07T02:36:53;19.90;;;13.83;;
79212;SDS011;68639;52.380;9.822;2023-05-07T02:39:18;17.27;;;12.93;;
79212;SDS011;68639;52.380;9.822;2023-05-07T02:41:44;17.63;;;13.30;;
79212;SDS011;68639;52.380;9.822;2023-05-07T02:44:09;19.53;;;12.43;;
79212;SDS011;68639;52.380;9.822;2023-05-07T02:46:34;19.00;;;12.63;;
79212;SDS011;68639;52.380;9.822;2023-05-07T02:48:59;16.50;;;12.77;;
79212;SDS011;68639;52.380;9.822;2023-05-07T02:51:25;18.07;;;12.90;;
79212;SDS011;68639;52.380;9.822;2023-05-07T02:53:50;19.03;;;13.07;;
79212;SDS011;68639;52.380;9.822;2023-05-07T02:56:16;17.63;;;12.87;;
79212;SDS011;68639;52.380;9.822;2023-05-07T02:58:41;17.73;;;13.33;;
79212;SDS011;68639;52.380;9.822;2023-05-07T03:01:09;17.77;;;12.33;;
79212;SDS011;68639;52.380;9.822;2023-05-07T03:03:35;18.57;;;12.50;;
79212;SDS011;68639;52.380;9.822;2023-05-07T03:06:00;18.17;;;13.07;;
79212;SDS011;68639;52.380;9.822;2023-05-07T03:08:26;17.53;;;12.87;;
79212;SDS011;68639;52.380;9.822;2023-05-07T03:10:51;17.70;;;13.20;;
79212;SDS011;68639;52.380;9.822;2023-05-07T03:13:17;17.77;;;13.37;;
79212;SDS011;68639;52.380;9.822;2023-05-07T03:15:42;17.57;;;13.23;;
79212;SDS011;68639;52.380;9.822;2023-05-07T03:18:07;18.63;;;13.03;;
79212;SDS011;68639;52.380;9.822;2023-05-07T03:20:32;21.40;;;14.23;;
79212;SDS011;68639;52.380;9.822;2023-05-07T03:22:58;21.27;;;14.10;;
79212;SDS011;68639;52.380;9.822;2023-05-07T03:25:23;22.13;;;15.90;;
79212;SDS011;68639;52.380;9.822;2023-05-07T03:27:48;18.83;;;12.70;;
79212;SDS011;68639;52.380;9.822;2023-05-07T03:30:13;19.50;;;12.97;;
79212;SDS011;68639;52.380;9.822;2023-05-07T03:32:39;18.73;;;15.17;;
79212;SDS011;68639;52.380;9.822;2023-05-07T03:35:04;20.10;;;13.83;;
79212;SDS011;68639;52.380;9.822;2023-05-07T03:37:30;17.67;;;12.37;;
79212;SDS011;68639;52.380;9.822;2023-05-07T03:39:55;17.87;;;12.93;;
79212;SDS011;68639;52.380;9.822;2023-05-07T03:42:20;17.23;;;13.37;;
79212;SDS011;68639;52.380;9.822;2023-05-07T03:44:45;16.23;;;12.37;;
79212;SDS011;68639;52.380;9.822;2023-05-07T03:47:11;16.13;;;12.87;;
79212;SDS011;68639;52.380;9.822;2023-05-07T03:49:36;17.90;;;12.80;;
79212;SDS011;68639;52.380;9.822;2023-05-07T03:52:01;19.37;;;15.40;;
79212;SDS011;68639;52.380;9.822;2023-05-07T03:54:27;16.07;;;12.07;;
79212;SDS011;68639;52.380;9.822;2023-05-07T03:56:52;15.67;;;11.73;;
79212;SDS011;68639;52.380;9.822;2023-05-07T03:59:17;16.60;;;11.13;;
79212;SDS011;68639;52.380;9.822;2023-05-07T04:01:42;15.47;;;11.53;;
79212;SDS011;68639;52.380;9.822;2023-05-07T04:04:08;16.37;;;11.53;;
79212;SDS011;68639;52.380;9.822;2023-05-07T04:06:33;20.50;;;11.07;;
79212;SDS011;68639;52.380;9.822;2023-05-07T04:08:58;15.00;;;10.73;;
79212;SDS011;68639;52.380;9.822;2023-05-07T04:11:23;15.73;;;11.90;;
79212;SDS011;68639;52.380;9.822;2023-05-07T04:13:49;15.67;;;11.60;;
79212;SDS011;68639;52.380;9.822;2023-05-07T04:16:15;15.67;;;12.03;;
79212;SDS011;68639;52.380;9.822;2023-05-07T04:18:40;16.87;;;11.40;;
79212;SDS011;68639;52.380;9.822;2023-05-07T04:21:06;16.93;;;12.33;;
79212;SDS011;68639;52.380;9.822;2023-05-07T04:23:38;15.33;;;12.17;;
79212;SDS011;68639;52.380;9.822;2023-05-07T04:26:03;17.53;;;12.67;;
79212;SDS011;68639;52.380;9.822;2023-05-07T04:28:28;17.63;;;12.30;;
79212;SDS011;68639;52.380;9.822;2023-05-07T04:30:54;17.03;;;11.80;;
79212;SDS011;68639;52.380;9.822;2023-05-07T04:33:19;17.13;;;12.47;;
79212;SDS011;68639;52.380;9.822;2023-05-07T04:35:44;18.43;;;13.63;;
79212;SDS011;68639;52.380;9.822;2023-05-07T04:38:10;16.13;;;12.37;;
79212;SDS011;68639;52.380;9.822;2023-05-07T04:40:36;17.33;;;12.37;;
79212;SDS011;68639;52.380;9.822;2023-05-07T04:43:01;15.70;;;12.57;;
79212;SDS011;68639;52.380;9.822;2023-05-07T04:45:27;16.27;;;12.63;;
79212;SDS011;68639;52.380;9.822;2023-05-07T04:47:52;16.40;;;11.77;;
79212;SDS011;68639;52.380;9.822;2023-05-07T04:50:17;16.13;;;12.50;;
79212;SDS011;68639;52.380;9.822;2023-05-07T04:52:44;18.87;;;13.23;;
79212;SDS011;68639;52.380;9.822;2023-05-07T04:55:10;16.50;;;11.93;;
79212;SDS011;68639;52.380;9.822;2023-05-07T04:57:35;19.17;;;12.17;;
79212;SDS011;68639;52.380;9.822;2023-05-07T05:00:00;15.37;;;10.97;;
79212;SDS011;68639;52.380;9.822;2023-05-07T05:02:25;15.23;;;11.13;;
79212;SDS011;68639;52.380;9.822;2023-05-07T05:04:51;15.40;;;11.40;;
79212;SDS011;68639;52.380;9.822;2023-05-07T05:07:16;15.83;;;11.60;;
79212;SDS011;68639;52.380;9.822;2023-05-07T05:09:41;16.00;;;11.70;;
79212;SDS011;68639;52.380;9.822;2023-05-07T05:12:06;15.33;;;10.43;;
79212;SDS011;68639;52.380;9.822;2023-05-07T05:14:32;17.03;;;11.47;;
79212;SDS011;68639;52.380;9.822;2023-05-07T05:16:57;14.03;;;10.83;;
79212;SDS011;68639;52.380;9.822;2023-05-07T05:19:22;16.37;;;10.67;;
79212;SDS011;68639;52.380;9.822;2023-05-07T05:21:48;14.07;;;10.97;;
79212;SDS011;68639;52.380;9.822;2023-05-07T05:24:13;14.30;;;10.90;;
79212;SDS011;68639;52.380;9.822;2023-05-07T05:26:38;15.80;;;10.70;;
79212;SDS011;68639;52.380;9.822;2023-05-07T05:29:03;18.03;;;11.37;;
79212;SDS011;68639;52.380;9.822;2023-05-07T05:31:29;15.67;;;11.83;;
79212;SDS011;68639;52.380;9.822;2023-05-07T05:33:54;14.40;;;10.77;;
79212;SDS011;68639;52.380;9.822;2023-05-07T05:36:19;15.17;;;11.40;;
79212;SDS011;68639;52.380;9.822;2023-05-07T05:38:45;13.20;;;10.63;;
79212;SDS011;68639;52.380;9.822;2023-05-07T05:41:11;13.87;;;10.67;;
79212;SDS011;68639;52.380;9.822;2023-05-07T05:43:36;14.93;;;10.03;;
79212;SDS011;68639;52.380;9.822;2023-05-07T05:46:01;14.97;;;10.07;;
79212;SDS011;68639;52.380;9.822;2023-05-07T05:48:27;12.17;;;9.83;;
79212;SDS011;68639;52.380;9.822;2023-05-07T05:50:52;13.47;;;9.93;;
79212;SDS011;68639;52.380;9.822;2023-05-07T05:53:17;14.87;;;9.73;;
79212;SDS011;68639;52.380;9.822;2023-05-07T05:55:42;12.93;;;9.67;;
79212;SDS011;68639;52.380;9.822;2023-05-07T05:58:08;11.70;;;9.47;;
79212;SDS011;68639;52.380;9.822;2023-05-07T06:00:34;12.03;;;9.70;;
79212;SDS011;68639;52.380;9.822;2023-05-07T06:02:59;11.53;;;9.53;;
79212;SDS011;68639;52.380;9.822;2023-05-07T06:05:24;13.43;;;10.10;;
79212;SDS011;68639;52.380;9.822;2023-05-07T06:07:50;12.73;;;9.53;;
79212;SDS011;68639;52.380;9.822;2023-05-07T06:10:15;13.47;;;9.33;;
79212;SDS011;68639;52.380;9.822;2023-05-07T06:12:40;17.37;;;9.23;;
79212;SDS011;68639;52.380;9.822;2023-05-07T06:15:05;13.63;;;9.00;;
79212;SDS011;68639;52.380;9.822;2023-05-07T06:17:31;11.50;;;9.10;;
79212;SDS011;68639;52.380;9.822;2023-05-07T06:19:56;11.73;;;9.47;;
79212;SDS011;68639;52.380;9.822;2023-05-07T06:22:21;11.37;;;9.50;;
79212;SDS011;68639;52.380;9.822;2023-05-07T06:24:47;10.73;;;9.17;;
79212;SDS011;68639;52.380;9.822;2023-05-07T06:27:12;11.80;;;8.87;;
79212;SDS011;68639;52.380;9.822;2023-05-07T06:29:37;10.47;;;8.87;;
79212;SDS011;68639;52.380;9.822;2023-05-07T06:32:06;11.60;;;8.93;;
79212;SDS011;68639;52.380;9.822;2023-05-07T06:34:31;10.90;;;8.90;;
79212;SDS011;68639;52.380;9.822;2023-05-07T06:36:57;14.87;;;8.80;;
79212;SDS011;68639;52.380;9.822;2023-05-07T06:39:23;10.50;;;9.30;;
79212;SDS011;68639;52.380;9.822;2023-05-07T06:41:48;12.37;;;9.13;;
79212;SDS011;68639;52.380;9.822;2023-05-07T06:44:13;9.53;;;8.33;;
79212;SDS011;68639;52.380;9.822;2023-05-07T06:46:38;13.50;;;10.40;;
79212;SDS011;68639;52.380;9.822;2023-05-07T06:49:04;12.43;;;10.33;;
79212;SDS011;68639;52.380;9.822;2023-05-07T06:51:29;13.50;;;10.87;;
79212;SDS011;68639;52.380;9.822;2023-05-07T06:53:55;13.83;;;11.67;;
79212;SDS011;68639;52.380;9.822;2023-05-07T06:56:20;14.17;;;11.03;;
79212;SDS011;68639;52.380;9.822;2023-05-07T06:58:46;15.17;;;11.70;;
79212;SDS011;68639;52.380;9.822;2023-05-07T07:01:11;13.13;;;11.10;;
79212;SDS011;68639;52.380;9.822;2023-05-07T07:03:36;14.47;;;11.80;;
79212;SDS011;68639;52.380;9.822;2023-05-07T07:06:01;16.90;;;12.13;;
79212;SDS011;68639;52.380;9.822;2023-05-07T07:08:27;15.43;;;13.40;;
79212;SDS011;68639;52.380;9.822;2023-05-07T07:10:52;14.17;;;12.03;;
79212;SDS011;68639;52.380;9.822;2023-05-07T07:13:17;15.80;;;13.20;;
79212;SDS011;68639;52.380;9.822;2023-05-07T07:15:44;16.57;;;13.00;;
79212;SDS011;68639;52.380;9.822;2023-05-07T07:18:09;15.80;;;12.97;;
79212;SDS011;68639;52.380;9.822;2023-05-07T07:20:35;15.23;;;13.63;;
79212;SDS011;68639;52.380;9.822;2023-05-07T07:23:00;17.70;;;13.30;;
79212;SDS011;68639;52.380;9.822;2023-05-07T07:25:25;15.10;;;12.47;;
79212;SDS011;68639;52.380;9.822;2023-05-07T07:27:50;14.63;;;12.50;;
79212;SDS011;68639;52.380;9.822;2023-05-07T07:30:16;14.40;;;11.77;;
79212;SDS011;68639;52.380;9.822;2023-05-07T07:32:41;14.07;;;12.17;;
79212;SDS011;68639;52.380;9.822;2023-05-07T07:35:07;14.63;;;11.75;;
79212;SDS011;68639;52.380;9.822;2023-05-07T07:37:33;14.10;;;11.70;;
79212;SDS011;68639;52.380;9.822;2023-05-07T07:39:58;12.68;;;10.85;;
79212;SDS011;68639;52.380;9.822;2023-05-07T07:42:23;13.10;;;11.03;;
79212;SDS011;68639;52.380;9.822;2023-05-07T07:44:48;12.50;;;10.23;;
79212;SDS011;68639;52.380;9.822;2023-05-07T07:47:14;13.80;;;10.50;;
79212;SDS011;68639;52.380;9.822;2023-05-07T07:49:39;13.15;;;10.43;;
79212;SDS011;68639;52.380;9.822;2023-05-07T07:52:04;11.10;;;9.90;;
79212;SDS011;68639;52.380;9.822;2023-05-07T07:54:30;12.63;;;10.63;;
79212;SDS011;68639;52.380;9.822;2023-05-07T07:56:55;14.23;;;10.30;;
79212;SDS011;68639;52.380;9.822;2023-05-07T07:59:20;15.52;;;10.20;;
79212;SDS011;68639;52.380;9.822;2023-05-07T08:01:45;10.48;;;9.13;;
79212;SDS011;68639;52.380;9.822;2023-05-07T08:04:13;11.47;;;9.17;;
79212;SDS011;68639;52.380;9.822;2023-05-07T08:06:38;11.80;;;9.63;;
79212;SDS011;68639;52.380;9.822;2023-05-07T08:09:03;15.98;;;9.38;;
79212;SDS011;68639;52.380;9.822;2023-05-07T08:11:28;11.93;;;9.82;;
79212;SDS011;68639;52.380;9.822;2023-05-07T08:13:54;12.50;;;9.43;;
79212;SDS011;68639;52.380;9.822;2023-05-07T08:16:19;12.10;;;9.20;;
79212;SDS011;68639;52.380;9.822;2023-05-07T08:18:45;11.25;;;9.18;;
79212;SDS011;68639;52.380;9.822;2023-05-07T08:21:10;17.63;;;10.55;;
79212;SDS011;68639;52.380;9.822;2023-05-07T08:23:35;11.43;;;9.23;;
79212;SDS011;68639;52.380;9.822;2023-05-07T08:26:00;10.75;;;8.80;;
79212;SDS011;68639;52.380;9.822;2023-05-07T08:28:26;11.75;;;9.43;;
79212;SDS011;68639;52.380;9.822;2023-05-07T08:30:51;11.88;;;8.60;;
79212;SDS011;68639;52.380;9.822;2023-05-07T08:33:16;10.95;;;8.30;;
79212;SDS011;68639;52.380;9.822;2023-05-07T08:35:42;10.43;;;8.30;;
79212;SDS011;68639;52.380;9.822;2023-05-07T08:38:07;9.70;;;7.88;;
79212;SDS011;68639;52.380;9.822;2023-05-07T08:40:34;10.98;;;8.30;;
79212;SDS011;68639;52.380;9.822;2023-05-07T08:43:01;11.70;;;8.90;;
79212;SDS011;68639;52.380;9.822;2023-05-07T08:45:27;11.45;;;8.50;;
79212;SDS011;68639;52.380;9.822;2023-05-07T08:47:55;10.93;;;8.35;;
79212;SDS011;68639;52.380;9.822;2023-05-07T08:50:23;11.00;;;8.13;;
79212;SDS011;68639;52.380;9.822;2023-05-07T08:52:48;10.15;;;8.40;;
79212;SDS011;68639;52.380;9.822;2023-05-07T08:55:13;10.90;;;8.65;;
79212;SDS011;68639;52.380;9.822;2023-05-07T08:57:40;11.38;;;9.00;;
79212;SDS011;68639;52.380;9.822;2023-05-07T09:00:05;10.55;;;8.82;;
79212;SDS011;68639;52.380;9.822;2023-05-07T09:02:32;10.98;;;8.73;;
79212;SDS011;68639;52.380;9.822;2023-05-07T09:04:57;11.65;;;9.07;;
79212;SDS011;68639;52.380;9.822;2023-05-07T09:07:22;16.17;;;9.85;;
79212;SDS011;68639;52.380;9.822;2023-05-07T09:09:48;12.13;;;9.82;;
79212;SDS011;68639;52.380;9.822;2023-05-07T09:12:13;12.40;;;10.75;;
79212;SDS011;68639;52.380;9.822;2023-05-07T09:14:38;12.63;;;9.38;;
79212;SDS011;68639;52.380;9.822;2023-05-07T09:17:04;13.10;;;9.82;;
79212;SDS011;68639;52.380;9.822;2023-05-07T09:19:30;13.25;;;9.60;;
79212;SDS011;68639;52.380;9.822;2023-05-07T09:21:58;12.10;;;9.60;;
79212;SDS011;68639;52.380;9.822;2023-05-07T09:24:24;11.90;;;8.70;;
79212;SDS011;68639;52.380;9.822;2023-05-07T09:26:50;12.18;;;9.88;;
79212;SDS011;68639;52.380;9.822;2023-05-07T09:29:15;11.50;;;9.07;;
79212;SDS011;68639;52.380;9.822;2023-05-07T09:31:41;11.70;;;9.10;;
79212;SDS011;68639;52.380;9.822;2023-05-07T09:34:07;11.23;;;9.32;;
79212;SDS011;68639;52.380;9.822;2023-05-07T09:36:33;10.25;;;8.68;;
79212;SDS011;68639;52.380;9.822;2023-05-07T09:39:01;11.65;;;9.00;;
79212;SDS011;68639;52.380;9.822;2023-05-07T09:41:26;11.15;;;8.93;;
79212;SDS011;68639;52.380;9.822;2023-05-07T09:43:55;12.32;;;9.13;;
79212;SDS011;68639;52.380;9.822;2023-05-07T09:46:20;11.13;;;8.77;;
79212;SDS011;68639;52.380;9.822;2023-05-07T09:48:49;12.38;;;9.90;;
79212;SDS011;68639;52.380;9.822;2023-05-07T09:53:43;14.57;;;9.73;;
79212;SDS011;68639;52.380;9.822;2023-05-07T09:56:08;11.23;;;9.18;;
79212;SDS011;68639;52.380;9.822;2023-05-07T09:58:33;13.23;;;9.48;;
79212;SDS011;68639;52.380;9.822;2023-05-07T10:01:02;12.13;;;10.50;;
79212;SDS011;68639;52.380;9.822;2023-05-07T10:03:27;14.23;;;10.38;;
79212;SDS011;68639;52.380;9.822;2023-05-07T10:05:54;11.88;;;9.50;;
79212;SDS011;68639;52.380;9.822;2023-05-07T10:08:19;12.40;;;9.82;;
79212;SDS011;68639;52.380;9.822;2023-05-07T10:10:45;12.77;;;10.27;;
79212;SDS011;68639;52.380;9.822;2023-05-07T10:13:11;12.43;;;10.20;;
79212;SDS011;68639;52.380;9.822;2023-05-07T10:15:36;12.93;;;9.90;;
79212;SDS011;68639;52.380;9.822;2023-05-07T10:18:03;13.88;;;10.73;;
79212;SDS011;68639;52.380;9.822;2023-05-07T10:20:28;10.70;;;9.23;;
79212;SDS011;68639;52.380;9.822;2023-05-07T10:22:53;10.60;;;9.50;;
79212;SDS011;68639;52.380;9.822;2023-05-07T10:25:21;15.95;;;9.93;;
79212;SDS011;68639;52.380;9.822;2023-05-07T10:27:47;11.63;;;9.63;;
79212;SDS011;68639;52.380;9.822;2023-05-07T10:30:22;11.50;;;9.05;;
79212;SDS011;68639;52.380;9.822;2023-05-07T10:32:53;11.95;;;8.43;;
79212;SDS011;68639;52.380;9.822;2023-05-07T10:35:24;11.27;;;9.40;;
79212;SDS011;68639;52.380;9.822;2023-05-07T10:37:50;9.38;;;8.23;;
79212;SDS011;68639;52.380;9.822;2023-05-07T10:40:16;12.23;;;9.13;;
79212;SDS011;68639;52.380;9.822;2023-05-07T10:42:58;10.73;;;9.00;;
79212;SDS011;68639;52.380;9.822;2023-05-07T10:45:27;9.73;;;7.90;;
79212;SDS011;68639;52.380;9.822;2023-05-07T10:48:06;10.70;;;8.20;;
79212;SDS011;68639;52.380;9.822;2023-05-07T10:50:31;12.05;;;9.07;;
79212;SDS011;68639;52.380;9.822;2023-05-07T10:55:40;9.55;;;8.13;;
79212;SDS011;68639;52.380;9.822;2023-05-07T10:58:27;10.15;;;8.23;;
79212;SDS011;68639;52.380;9.822;2023-05-07T11:00:55;10.43;;;8.07;;
79212;SDS011;68639;52.380;9.822;2023-05-07T11:03:21;12.75;;;8.05;;
79212;SDS011;68639;52.380;9.822;2023-05-07T11:05:47;8.55;;;7.63;;
79212;SDS011;68639;52.380;9.822;2023-05-07T11:08:13;10.43;;;7.85;;
79212;SDS011;68639;52.380;9.822;2023-05-07T11:13:14;11.05;;;7.70;;
79212;SDS011;68639;52.380;9.822;2023-05-07T11:15:40;8.57;;;7.47;;
79212;SDS011;68639;52.380;9.822;2023-05-07T11:18:08;10.20;;;7.28;;
79212;SDS011;68639;52.380;9.822;2023-05-07T11:26:03;9.98;;;7.82;;
79212;SDS011;68639;52.380;9.822;2023-05-07T11:28:29;10.65;;;7.60;;
79212;SDS011;68639;52.380;9.822;2023-05-07T11:30:55;11.30;;;7.47;;
79212;SDS011;68639;52.380;9.822;2023-05-07T11:33:21;8.63;;;7.15;;
79212;SDS011;68639;52.380;9.822;2023-05-07T11:35:47;9.18;;;7.50;;
79212;SDS011;68639;52.380;9.822;2023-05-07T11:38:12;9.23;;;7.85;;
79212;SDS011;68639;52.380;9.822;2023-05-07T11:40:54;9.10;;;7.18;;
79212;SDS011;68639;52.380;9.822;2023-05-07T11:43:20;8.32;;;6.70;;
79212;SDS011;68639;52.380;9.822;2023-05-07T11:45:45;8.90;;;7.03;;
79212;SDS011;68639;52.380;9.822;2023-05-07T11:48:11;9.25;;;6.97;;
79212;SDS011;68639;52.380;9.822;2023-05-07T11:50:39;7.65;;;6.55;;
79212;SDS011;68639;52.380;9.822;2023-05-07T11:53:14;8.18;;;6.43;;
79212;SDS011;68639;52.380;9.822;2023-05-07T11:55:42;8.82;;;6.65;;
79212;SDS011;68639;52.380;9.822;2023-05-07T11:58:07;9.98;;;6.25;;
79212;SDS011;68639;52.380;9.822;2023-05-07T12:00:34;9.63;;;6.30;;
79212;SDS011;68639;52.380;9.822;2023-05-07T12:03:03;8.93;;;6.07;;
79212;SDS011;68639;52.380;9.822;2023-05-07T12:05:28;10.52;;;6.50;;
79212;SDS011;68639;52.380;9.822;2023-05-07T12:07:55;8.95;;;6.35;;
79212;SDS011;68639;52.380;9.822;2023-05-07T12:10:21;10.18;;;6.63;;
79212;SDS011;68639;52.380;9.822;2023-05-07T12:12:46;8.18;;;6.10;;
79212;SDS011;68639;52.380;9.822;2023-05-07T12:15:13;9.13;;;6.55;;
79212;SDS011;68639;52.380;9.822;2023-05-07T12:17:40;7.03;;;5.65;;
79212;SDS011;68639;52.380;9.822;2023-05-07T12:20:06;6.90;;;6.00;;
79212;SDS011;68639;52.380;9.822;2023-05-07T12:22:31;6.97;;;5.53;;
79212;SDS011;68639;52.380;9.822;2023-05-07T12:24:57;7.82;;;5.25;;
79212;SDS011;68639;52.380;9.822;2023-05-07T12:27:22;6.78;;;5.25;;
79212;SDS011;68639;52.380;9.822;2023-05-07T12:29:48;6.60;;;5.00;;
79212;SDS011;68639;52.380;9.822;2023-05-07T12:32:14;10.02;;;5.55;;
79212;SDS011;68639;52.380;9.822;2023-05-07T12:34:40;11.35;;;5.25;;
79212;SDS011;68639;52.380;9.822;2023-05-07T12:37:05;7.03;;;5.68;;
79212;SDS011;68639;52.380;9.822;2023-05-07T12:39:31;7.18;;;5.63;;
79212;SDS011;68639;52.380;9.822;2023-05-07T12:41:58;7.18;;;5.28;;
79212;SDS011;68639;52.380;9.822;2023-05-07T12:44:32;6.07;;;5.18;;
79212;SDS011;68639;52.380;9.822;2023-05-07T12:46:58;6.07;;;4.85;;
79212;SDS011;68639;52.380;9.822;2023-05-07T12:49:23;6.20;;;4.95;;
79212;SDS011;68639;52.380;9.822;2023-05-07T12:51:49;6.53;;;5.20;;
79212;SDS011;68639;52.380;9.822;2023-05-07T12:54:27;9.63;;;5.53;;
79212;SDS011;68639;52.380;9.822;2023-05-07T12:56:59;8.98;;;5.78;;
79212;SDS011;68639;52.380;9.822;2023-05-07T12:59:35;7.95;;;6.65;;
79212;SDS011;68639;52.380;9.822;2023-05-07T13:02:01;8.70;;;7.20;;
79212;SDS011;68639;52.380;9.822;2023-05-07T13:04:26;8.25;;;6.47;;
79212;SDS011;68639;52.380;9.822;2023-05-07T13:06:51;8.55;;;6.65;;
79212;SDS011;68639;52.380;9.822;2023-05-07T13:09:17;7.60;;;6.57;;
79212;SDS011;68639;52.380;9.822;2023-05-07T13:11:42;9.40;;;6.70;;
79212;SDS011;68639;52.380;9.822;2023-05-07T13:14:07;7.40;;;6.55;;
79212;SDS011;68639;52.380;9.822;2023-05-07T13:16:33;7.30;;;6.32;;
79212;SDS011;68639;52.380;9.822;2023-05-07T13:18:58;7.47;;;5.90;;
79212;SDS011;68639;52.380;9.822;2023-05-07T13:21:23;6.80;;;5.82;;
79212;SDS011;68639;52.380;9.822;2023-05-07T13:23:48;9.10;;;6.18;;
79212;SDS011;68639;52.380;9.822;2023-05-07T13:26:14;7.68;;;6.32;;
79212;SDS011;68639;52.380;9.822;2023-05-07T13:28:39;8.32;;;6.35;;
79212;SDS011;68639;52.380;9.822;2023-05-07T13:31:05;9.40;;;6.45;;
79212;SDS011;68639;52.380;9.822;2023-05-07T13:33:30;7.70;;;6.60;;
79212;SDS011;68639;52.380;9.822;2023-05-07T13:35:55;19.40;;;7.63;;
79212;SDS011;68639;52.380;9.822;2023-05-07T13:38:22;9.57;;;6.45;;
79212;SDS011;68639;52.380;9.822;2023-05-07T13:40:47;7.78;;;6.28;;
79212;SDS011;68639;52.380;9.822;2023-05-07T13:43:12;7.82;;;6.40;;
79212;SDS011;68639;52.380;9.822;2023-05-07T13:45:37;8.95;;;7.07;;
79212;SDS011;68639;52.380;9.822;2023-05-07T13:48:03;8.70;;;7.57;;
79212;SDS011;68639;52.380;9.822;2023-05-07T13:50:28;9.68;;;7.50;;
79212;SDS011;68639;52.380;9.822;2023-05-07T13:52:54;9.18;;;7.30;;
79212;SDS011;68639;52.380;9.822;2023-05-07T13:55:20;10.38;;;7.50;;
79212;SDS011;68639;52.380;9.822;2023-05-07T13:57:46;8.27;;;6.82;;
79212;SDS011;68639;52.380;9.822;2023-05-07T14:00:11;9.55;;;6.40;;
79212;SDS011;68639;52.380;9.822;2023-05-07T14:02:37;8.15;;;6.32;;
79212;SDS011;68639;52.380;9.822;2023-05-07T14:05:02;8.88;;;6.43;;
79212;SDS011;68639;52.380;9.822;2023-05-07T14:07:27;7.75;;;6.03;;
79212;SDS011;68639;52.380;9.822;2023-05-07T14:09:53;8.50;;;6.00;;
79212;SDS011;68639;52.380;9.822;2023-05-07T14:12:18;7.65;;;5.68;;
79212;SDS011;68639;52.380;9.822;2023-05-07T14:14:44;7.80;;;6.15;;
79212;SDS011;68639;52.380;9.822;2023-05-07T14:17:10;6.88;;;5.65;;
79212;SDS011;68639;52.380;9.822;2023-05-07T14:19:35;7.47;;;5.75;;
79212;SDS011;68639;52.380;9.822;2023-05-07T14:22:00;9.15;;;6.38;;
79212;SDS011;68639;52.380;9.822;2023-05-07T14:24:26;8.38;;;6.03;;
79212;SDS011;68639;52.380;9.822;2023-05-07T14:26:51;7.97;;;5.90;;
79212;SDS011;68639;52.380;9.822;2023-05-07T14:29:16;8.00;;;6.15;;
79212;SDS011;68639;52.380;9.822;2023-05-07T14:31:44;11.43;;;7.75;;
79212;SDS011;68639;52.380;9.822;2023-05-07T14:34:09;10.20;;;6.68;;
79212;SDS011;68639;52.380;9.822;2023-05-07T14:36:34;7.80;;;6.50;;